sensor_id;sensor_type;location;lat;lon;timestamp;P1;durP1;ratioP1;P2;durP2;ratioP2
69588;SDS011;56792;50.644;17.984;2023-02-13T00:01:26;39.10;;;16.60;;
69588;SDS011;56792;50.644;17.984;2023-02-13T00:04:00;36.00;;;16.30;;
69588;SDS011;56792;50.644;17.984;2023-02-13T00:06:32;35.40;;;16.80;;
69588;SDS011;56792;50.644;17.984;2023-02-13T00:09:04;37.00;;;16.40;;
69588;SDS011;56792;50.644;17.984;2023-02-13T00:11:38;32.70;;;13.30;;
69588;SDS011;56792;50.644;17.984;2023-02-13T00:14:11;28.20;;;13.50;;
69588;SDS011;56792;50.644;17.984;2023-02-13T00:16:43;36.40;;;15.60;;
69588;SDS011;56792;50.644;17.984;2023-02-13T00:19:15;35.10;;;16.60;;
69588;SDS011;56792;50.644;17.984;2023-02-13T00:21:47;31.30;;;14.40;;
69588;SDS011;56792;50.644;17.984;2023-02-13T00:24:20;34.10;;;15.40;;
69588;SDS011;56792;50.644;17.984;2023-02-13T00:26:52;29.90;;;14.30;;
69588;SDS011;56792;50.644;17.984;2023-02-13T00:29:24;29.50;;;13.50;;
69588;SDS011;56792;50.644;17.984;2023-02-13T00:31:56;27.20;;;13.30;;
69588;SDS011;56792;50.644;17.984;2023-02-13T00:34:29;31.60;;;13.80;;
69588;SDS011;56792;50.644;17.984;2023-02-13T00:37:01;31.30;;;15.20;;
69588;SDS011;56792;50.644;17.984;2023-02-13T00:39:33;34.20;;;14.90;;
69588;SDS011;56792;50.644;17.984;2023-02-13T00:42:05;34.90;;;15.60;;
69588;SDS011;56792;50.644;17.984;2023-02-13T00:44:38;35.80;;;16.10;;
69588;SDS011;56792;50.644;17.984;2023-02-13T00:47:10;34.40;;;15.20;;
69588;SDS011;56792;50.644;17.984;2023-02-13T00:49:42;33.60;;;15.80;;
69588;SDS011;56792;50.644;17.984;2023-02-13T00:52:14;32.70;;;13.60;;
69588;SDS011;56792;50.644;17.984;2023-02-13T00:54:47;30.40;;;13.40;;
69588;SDS011;56792;50.644;17.984;2023-02-13T00:57:19;27.50;;;12.70;;
69588;SDS011;56792;50.644;17.984;2023-02-13T00:59:51;30.00;;;12.30;;
69588;SDS011;56792;50.644;17.984;2023-02-13T01:02:23;28.70;;;12.70;;
69588;SDS011;56792;50.644;17.984;2023-02-13T01:04:57;26.00;;;11.90;;
69588;SDS011;56792;50.644;17.984;2023-02-13T01:07:29;25.40;;;12.70;;
69588;SDS011;56792;50.644;17.984;2023-02-13T01:10:01;30.30;;;13.00;;
69588;SDS011;56792;50.644;17.984;2023-02-13T01:12:33;27.20;;;11.70;;
69588;SDS011;56792;50.644;17.984;2023-02-13T01:15:09;27.00;;;12.80;;
69588;SDS011;56792;50.644;17.984;2023-02-13T01:17:41;28.80;;;13.00;;
69588;SDS011;56792;50.644;17.984;2023-02-13T01:20:14;26.20;;;13.10;;
69588;SDS011;56792;50.644;17.984;2023-02-13T01:22:47;30.90;;;15.10;;
69588;SDS011;56792;50.644;17.984;2023-02-13T01:25:19;26.60;;;12.40;;
69588;SDS011;56792;50.644;17.984;2023-02-13T01:27:52;26.90;;;12.90;;
69588;SDS011;56792;50.644;17.984;2023-02-13T01:30:24;25.10;;;11.90;;
69588;SDS011;56792;50.644;17.984;2023-02-13T01:32:57;29.00;;;13.40;;
69588;SDS011;56792;50.644;17.984;2023-02-13T01:35:29;25.70;;;12.90;;
69588;SDS011;56792;50.644;17.984;2023-02-13T01:38:01;26.40;;;12.50;;
69588;SDS011;56792;50.644;17.984;2023-02-13T01:40:33;26.10;;;11.30;;
69588;SDS011;56792;50.644;17.984;2023-02-13T01:43:07;24.00;;;11.50;;
69588;SDS011;56792;50.644;17.984;2023-02-13T01:45:41;24.70;;;10.20;;
69588;SDS011;56792;50.644;17.984;2023-02-13T01:48:17;24.90;;;11.90;;
69588;SDS011;56792;50.644;17.984;2023-02-13T01:50:54;20.50;;;10.40;;
69588;SDS011;56792;50.644;17.984;2023-02-13T01:53:31;22.50;;;10.60;;
69588;SDS011;56792;50.644;17.984;2023-02-13T01:56:10;21.80;;;10.80;;
69588;SDS011;56792;50.644;17.984;2023-02-13T01:58:50;15.60;;;8.60;;
69588;SDS011;56792;50.644;17.984;2023-02-13T02:01:27;21.90;;;9.40;;
69588;SDS011;56792;50.644;17.984;2023-02-13T02:04:06;22.60;;;9.80;;
69588;SDS011;56792;50.644;17.984;2023-02-13T02:06:44;20.40;;;9.50;;
69588;SDS011;56792;50.644;17.984;2023-02-13T02:09:28;20.10;;;9.10;;
69588;SDS011;56792;50.644;17.984;2023-02-13T02:12:10;21.20;;;9.10;;
69588;SDS011;56792;50.644;17.984;2023-02-13T02:14:51;20.10;;;9.20;;
69588;SDS011;56792;50.644;17.984;2023-02-13T02:17:25;22.90;;;10.00;;
69588;SDS011;56792;50.644;17.984;2023-02-13T02:20:06;25.30;;;11.30;;
69588;SDS011;56792;50.644;17.984;2023-02-13T02:26:58;21.40;;;9.60;;
69588;SDS011;56792;50.644;17.984;2023-02-13T02:33:22;18.90;;;9.00;;
69588;SDS011;56792;50.644;17.984;2023-02-13T02:36:12;23.20;;;10.10;;
69588;SDS011;56792;50.644;17.984;2023-02-13T02:39:05;24.40;;;12.00;;
69588;SDS011;56792;50.644;17.984;2023-02-13T02:41:57;25.60;;;11.20;;
69588;SDS011;56792;50.644;17.984;2023-02-13T02:44:44;20.80;;;11.80;;
69588;SDS011;56792;50.644;17.984;2023-02-13T02:47:23;24.70;;;11.10;;
69588;SDS011;56792;50.644;17.984;2023-02-13T02:50:25;19.90;;;8.70;;
69588;SDS011;56792;50.644;17.984;2023-02-13T02:53:14;19.60;;;9.90;;
69588;SDS011;56792;50.644;17.984;2023-02-13T02:56:04;19.10;;;8.20;;
69588;SDS011;56792;50.644;17.984;2023-02-13T02:58:43;18.20;;;8.20;;
69588;SDS011;56792;50.644;17.984;2023-02-13T03:01:38;17.70;;;8.10;;
69588;SDS011;56792;50.644;17.984;2023-02-13T03:04:33;17.40;;;7.60;;
69588;SDS011;56792;50.644;17.984;2023-02-13T03:07:27;17.30;;;8.20;;
69588;SDS011;56792;50.644;17.984;2023-02-13T03:10:03;17.50;;;8.20;;
69588;SDS011;56792;50.644;17.984;2023-02-13T03:12:56;20.00;;;8.60;;
69588;SDS011;56792;50.644;17.984;2023-02-13T03:16:00;16.10;;;8.10;;
69588;SDS011;56792;50.644;17.984;2023-02-13T03:18:53;19.00;;;8.60;;
69588;SDS011;56792;50.644;17.984;2023-02-13T03:21:48;16.70;;;8.00;;
69588;SDS011;56792;50.644;17.984;2023-02-13T03:24:48;14.00;;;6.40;;
69588;SDS011;56792;50.644;17.984;2023-02-13T03:27:36;15.60;;;7.40;;
69588;SDS011;56792;50.644;17.984;2023-02-13T03:30:38;14.80;;;7.90;;
69588;SDS011;56792;50.644;17.984;2023-02-13T03:33:35;14.10;;;7.70;;
69588;SDS011;56792;50.644;17.984;2023-02-13T03:36:28;16.30;;;7.60;;
69588;SDS011;56792;50.644;17.984;2023-02-13T03:39:29;16.60;;;6.90;;
69588;SDS011;56792;50.644;17.984;2023-02-13T03:42:10;16.40;;;7.50;;
69588;SDS011;56792;50.644;17.984;2023-02-13T03:44:50;15.60;;;6.90;;
69588;SDS011;56792;50.644;17.984;2023-02-13T03:47:41;17.30;;;7.50;;
69588;SDS011;56792;50.644;17.984;2023-02-13T03:50:16;13.30;;;7.50;;
69588;SDS011;56792;50.644;17.984;2023-02-13T03:52:51;16.00;;;7.20;;
69588;SDS011;56792;50.644;17.984;2023-02-13T03:55:29;15.50;;;7.70;;
69588;SDS011;56792;50.644;17.984;2023-02-13T03:58:24;20.40;;;8.00;;
69588;SDS011;56792;50.644;17.984;2023-02-13T04:01:20;13.70;;;6.50;;
69588;SDS011;56792;50.644;17.984;2023-02-13T04:03:59;15.60;;;8.10;;
69588;SDS011;56792;50.644;17.984;2023-02-13T04:06:41;18.80;;;8.40;;
69588;SDS011;56792;50.644;17.984;2023-02-13T04:09:17;15.80;;;8.30;;
69588;SDS011;56792;50.644;17.984;2023-02-13T04:11:55;19.50;;;8.80;;
69588;SDS011;56792;50.644;17.984;2023-02-13T04:14:35;18.30;;;8.00;;
69588;SDS011;56792;50.644;17.984;2023-02-13T04:17:16;13.50;;;6.50;;
69588;SDS011;56792;50.644;17.984;2023-02-13T04:19:52;12.00;;;6.30;;
69588;SDS011;56792;50.644;17.984;2023-02-13T04:22:25;14.50;;;7.30;;
69588;SDS011;56792;50.644;17.984;2023-02-13T04:24:58;15.60;;;8.20;;
69588;SDS011;56792;50.644;17.984;2023-02-13T04:27:30;16.40;;;7.10;;
69588;SDS011;56792;50.644;17.984;2023-02-13T04:30:02;13.70;;;6.60;;
69588;SDS011;56792;50.644;17.984;2023-02-13T04:32:36;12.10;;;5.80;;
69588;SDS011;56792;50.644;17.984;2023-02-13T04:35:09;13.40;;;6.20;;
69588;SDS011;56792;50.644;17.984;2023-02-13T04:37:42;14.60;;;7.40;;
69588;SDS011;56792;50.644;17.984;2023-02-13T04:40:15;17.10;;;8.40;;
69588;SDS011;56792;50.644;17.984;2023-02-13T04:42:49;16.30;;;8.10;;
69588;SDS011;56792;50.644;17.984;2023-02-13T04:45:21;16.20;;;8.70;;
69588;SDS011;56792;50.644;17.984;2023-02-13T04:47:54;18.00;;;8.40;;
69588;SDS011;56792;50.644;17.984;2023-02-13T04:50:27;18.70;;;8.90;;
69588;SDS011;56792;50.644;17.984;2023-02-13T04:52:59;18.90;;;9.60;;
69588;SDS011;56792;50.644;17.984;2023-02-13T04:55:32;17.40;;;8.90;;
69588;SDS011;56792;50.644;17.984;2023-02-13T04:58:04;19.10;;;8.80;;
69588;SDS011;56792;50.644;17.984;2023-02-13T05:00:36;14.50;;;8.30;;
69588;SDS011;56792;50.644;17.984;2023-02-13T05:03:10;15.80;;;8.20;;
69588;SDS011;56792;50.644;17.984;2023-02-13T05:05:42;12.80;;;7.10;;
69588;SDS011;56792;50.644;17.984;2023-02-13T05:08:15;13.50;;;6.80;;
69588;SDS011;56792;50.644;17.984;2023-02-13T05:10:47;13.80;;;6.90;;
69588;SDS011;56792;50.644;17.984;2023-02-13T05:13:20;11.70;;;6.30;;
69588;SDS011;56792;50.644;17.984;2023-02-13T05:15:53;13.40;;;6.70;;
69588;SDS011;56792;50.644;17.984;2023-02-13T05:18:25;15.10;;;6.90;;
69588;SDS011;56792;50.644;17.984;2023-02-13T05:20:58;13.50;;;6.80;;
69588;SDS011;56792;50.644;17.984;2023-02-13T05:23:47;11.50;;;5.90;;
69588;SDS011;56792;50.644;17.984;2023-02-13T05:26:20;12.20;;;7.20;;
69588;SDS011;56792;50.644;17.984;2023-02-13T05:28:52;13.00;;;6.50;;
69588;SDS011;56792;50.644;17.984;2023-02-13T05:31:42;12.90;;;6.30;;
69588;SDS011;56792;50.644;17.984;2023-02-13T05:34:15;12.50;;;6.20;;
69588;SDS011;56792;50.644;17.984;2023-02-13T05:36:49;13.60;;;6.80;;
69588;SDS011;56792;50.644;17.984;2023-02-13T05:39:22;13.80;;;6.60;;
69588;SDS011;56792;50.644;17.984;2023-02-13T05:41:54;12.80;;;6.80;;
69588;SDS011;56792;50.644;17.984;2023-02-13T05:44:27;15.70;;;7.50;;
69588;SDS011;56792;50.644;17.984;2023-02-13T05:46:59;17.00;;;6.80;;
69588;SDS011;56792;50.644;17.984;2023-02-13T05:49:31;13.50;;;6.30;;
69588;SDS011;56792;50.644;17.984;2023-02-13T05:52:04;13.80;;;6.60;;
69588;SDS011;56792;50.644;17.984;2023-02-13T05:54:36;13.90;;;6.60;;
69588;SDS011;56792;50.644;17.984;2023-02-13T05:57:08;13.30;;;6.70;;
69588;SDS011;56792;50.644;17.984;2023-02-13T05:59:40;13.80;;;6.60;;
69588;SDS011;56792;50.644;17.984;2023-02-13T06:02:15;15.00;;;6.80;;
69588;SDS011;56792;50.644;17.984;2023-02-13T06:04:52;16.50;;;7.90;;
69588;SDS011;56792;50.644;17.984;2023-02-13T06:07:24;14.20;;;8.00;;
69588;SDS011;56792;50.644;17.984;2023-02-13T06:09:56;16.40;;;7.70;;
69588;SDS011;56792;50.644;17.984;2023-02-13T06:12:28;13.60;;;7.10;;
69588;SDS011;56792;50.644;17.984;2023-02-13T06:15:01;15.90;;;8.00;;
69588;SDS011;56792;50.644;17.984;2023-02-13T06:17:33;15.70;;;7.70;;
69588;SDS011;56792;50.644;17.984;2023-02-13T06:20:07;16.60;;;8.30;;
69588;SDS011;56792;50.644;17.984;2023-02-13T06:22:40;17.00;;;8.70;;
69588;SDS011;56792;50.644;17.984;2023-02-13T06:25:13;16.70;;;8.90;;
69588;SDS011;56792;50.644;17.984;2023-02-13T06:27:45;15.80;;;8.90;;
69588;SDS011;56792;50.644;17.984;2023-02-13T06:30:19;17.90;;;9.30;;
69588;SDS011;56792;50.644;17.984;2023-02-13T06:32:51;17.70;;;9.40;;
69588;SDS011;56792;50.644;17.984;2023-02-13T06:35:24;16.90;;;8.90;;
69588;SDS011;56792;50.644;17.984;2023-02-13T06:37:56;16.20;;;8.70;;
69588;SDS011;56792;50.644;17.984;2023-02-13T06:40:28;19.90;;;10.00;;
69588;SDS011;56792;50.644;17.984;2023-02-13T06:43:00;17.00;;;8.70;;
69588;SDS011;56792;50.644;17.984;2023-02-13T06:45:33;18.30;;;9.50;;
69588;SDS011;56792;50.644;17.984;2023-02-13T06:48:06;17.80;;;9.90;;
69588;SDS011;56792;50.644;17.984;2023-02-13T06:50:38;19.50;;;9.90;;
69588;SDS011;56792;50.644;17.984;2023-02-13T06:53:11;20.00;;;9.30;;
69588;SDS011;56792;50.644;17.984;2023-02-13T06:55:43;18.20;;;9.60;;
69588;SDS011;56792;50.644;17.984;2023-02-13T06:58:16;18.30;;;9.10;;
69588;SDS011;56792;50.644;17.984;2023-02-13T07:00:49;18.40;;;9.70;;
69588;SDS011;56792;50.644;17.984;2023-02-13T07:03:22;17.20;;;9.30;;
69588;SDS011;56792;50.644;17.984;2023-02-13T07:05:54;19.40;;;8.80;;
69588;SDS011;56792;50.644;17.984;2023-02-13T07:08:28;18.30;;;8.60;;
69588;SDS011;56792;50.644;17.984;2023-02-13T07:11:01;17.90;;;8.80;;
69588;SDS011;56792;50.644;17.984;2023-02-13T07:13:51;16.20;;;8.60;;
69588;SDS011;56792;50.644;17.984;2023-02-13T07:16:25;17.00;;;8.40;;
69588;SDS011;56792;50.644;17.984;2023-02-13T07:18:57;23.70;;;12.50;;
69588;SDS011;56792;50.644;17.984;2023-02-13T07:21:31;18.80;;;9.00;;
69588;SDS011;56792;50.644;17.984;2023-02-13T07:24:06;21.00;;;10.00;;
69588;SDS011;56792;50.644;17.984;2023-02-13T07:26:39;18.20;;;9.40;;
69588;SDS011;56792;50.644;17.984;2023-02-13T07:29:11;16.20;;;8.70;;
69588;SDS011;56792;50.644;17.984;2023-02-13T07:31:44;16.20;;;8.70;;
69588;SDS011;56792;50.644;17.984;2023-02-13T07:34:17;15.10;;;8.50;;
69588;SDS011;56792;50.644;17.984;2023-02-13T07:36:53;15.40;;;7.60;;
69588;SDS011;56792;50.644;17.984;2023-02-13T07:39:25;13.50;;;7.90;;
69588;SDS011;56792;50.644;17.984;2023-02-13T07:41:59;12.70;;;7.50;;
69588;SDS011;56792;50.644;17.984;2023-02-13T07:44:31;15.20;;;8.70;;
69588;SDS011;56792;50.644;17.984;2023-02-13T07:47:04;15.90;;;8.30;;
69588;SDS011;56792;50.644;17.984;2023-02-13T07:49:36;17.00;;;8.90;;
69588;SDS011;56792;50.644;17.984;2023-02-13T07:52:08;15.20;;;7.90;;
69588;SDS011;56792;50.644;17.984;2023-02-13T07:54:41;20.40;;;9.20;;
69588;SDS011;56792;50.644;17.984;2023-02-13T07:57:16;20.50;;;9.60;;
69588;SDS011;56792;50.644;17.984;2023-02-13T07:59:49;19.70;;;8.90;;
69588;SDS011;56792;50.644;17.984;2023-02-13T08:02:21;13.60;;;7.60;;
69588;SDS011;56792;50.644;17.984;2023-02-13T08:04:54;14.60;;;7.90;;
69588;SDS011;56792;50.644;17.984;2023-02-13T08:07:26;13.40;;;7.30;;
69588;SDS011;56792;50.644;17.984;2023-02-13T08:09:59;13.30;;;7.10;;
69588;SDS011;56792;50.644;17.984;2023-02-13T08:12:48;14.40;;;8.10;;
69588;SDS011;56792;50.644;17.984;2023-02-13T08:15:21;12.50;;;6.80;;
69588;SDS011;56792;50.644;17.984;2023-02-13T08:17:54;12.00;;;7.10;;
69588;SDS011;56792;50.644;17.984;2023-02-13T08:20:27;15.00;;;6.80;;
69588;SDS011;56792;50.644;17.984;2023-02-13T08:23:05;12.90;;;6.50;;
69588;SDS011;56792;50.644;17.984;2023-02-13T08:25:39;12.80;;;6.70;;
69588;SDS011;56792;50.644;17.984;2023-02-13T08:28:13;13.70;;;7.20;;
69588;SDS011;56792;50.644;17.984;2023-02-13T08:30:47;11.00;;;6.20;;
69588;SDS011;56792;50.644;17.984;2023-02-13T08:33:19;12.60;;;6.40;;
69588;SDS011;56792;50.644;17.984;2023-02-13T08:35:53;12.00;;;6.30;;
69588;SDS011;56792;50.644;17.984;2023-02-13T08:38:26;12.70;;;6.50;;
69588;SDS011;56792;50.644;17.984;2023-02-13T08:40:58;11.90;;;6.20;;
69588;SDS011;56792;50.644;17.984;2023-02-13T08:43:31;11.70;;;6.30;;
69588;SDS011;56792;50.644;17.984;2023-02-13T08:46:04;9.90;;;5.70;;
69588;SDS011;56792;50.644;17.984;2023-02-13T08:48:36;11.00;;;5.20;;
69588;SDS011;56792;50.644;17.984;2023-02-13T08:51:10;11.20;;;5.30;;
69588;SDS011;56792;50.644;17.984;2023-02-13T08:53:44;11.60;;;5.60;;
69588;SDS011;56792;50.644;17.984;2023-02-13T08:56:17;10.00;;;5.70;;
69588;SDS011;56792;50.644;17.984;2023-02-13T08:58:50;10.50;;;5.30;;
69588;SDS011;56792;50.644;17.984;2023-02-13T09:01:23;10.40;;;5.00;;
69588;SDS011;56792;50.644;17.984;2023-02-13T09:03:56;11.50;;;5.50;;
69588;SDS011;56792;50.644;17.984;2023-02-13T09:06:28;12.90;;;5.10;;
69588;SDS011;56792;50.644;17.984;2023-02-13T09:09:00;13.70;;;6.10;;
69588;SDS011;56792;50.644;17.984;2023-02-13T09:11:33;13.40;;;7.10;;
69588;SDS011;56792;50.644;17.984;2023-02-13T09:14:06;13.30;;;6.90;;
69588;SDS011;56792;50.644;17.984;2023-02-13T09:16:40;15.60;;;8.50;;
69588;SDS011;56792;50.644;17.984;2023-02-13T09:19:12;16.20;;;8.20;;
69588;SDS011;56792;50.644;17.984;2023-02-13T09:21:45;15.40;;;8.60;;
69588;SDS011;56792;50.644;17.984;2023-02-13T09:24:17;14.00;;;7.40;;
69588;SDS011;56792;50.644;17.984;2023-02-13T09:26:49;12.60;;;7.40;;
69588;SDS011;56792;50.644;17.984;2023-02-13T09:29:22;12.30;;;6.90;;
69588;SDS011;56792;50.644;17.984;2023-02-13T09:31:58;10.70;;;5.70;;
69588;SDS011;56792;50.644;17.984;2023-02-13T09:34:30;12.90;;;6.30;;
69588;SDS011;56792;50.644;17.984;2023-02-13T09:37:02;16.80;;;6.10;;
69588;SDS011;56792;50.644;17.984;2023-02-13T09:39:35;12.80;;;6.40;;
69588;SDS011;56792;50.644;17.984;2023-02-13T09:42:16;18.50;;;7.90;;
69588;SDS011;56792;50.644;17.984;2023-02-13T09:44:54;15.40;;;6.70;;
69588;SDS011;56792;50.644;17.984;2023-02-13T09:47:33;15.40;;;7.20;;
69588;SDS011;56792;50.644;17.984;2023-02-13T09:50:10;14.40;;;7.20;;
69588;SDS011;56792;50.644;17.984;2023-02-13T09:52:49;15.20;;;6.30;;
69588;SDS011;56792;50.644;17.984;2023-02-13T09:55:26;12.30;;;5.70;;
69588;SDS011;56792;50.644;17.984;2023-02-13T09:58:11;10.70;;;5.70;;
69588;SDS011;56792;50.644;17.984;2023-02-13T10:00:54;11.20;;;5.30;;
69588;SDS011;56792;50.644;17.984;2023-02-13T10:03:32;12.50;;;6.60;;
69588;SDS011;56792;50.644;17.984;2023-02-13T10:06:17;12.10;;;6.30;;
69588;SDS011;56792;50.644;17.984;2023-02-13T10:09:15;10.90;;;6.10;;
69588;SDS011;56792;50.644;17.984;2023-02-13T10:12:15;12.10;;;6.90;;
69588;SDS011;56792;50.644;17.984;2023-02-13T10:15:16;10.00;;;6.10;;
69588;SDS011;56792;50.644;17.984;2023-02-13T10:18:00;11.40;;;6.50;;
69588;SDS011;56792;50.644;17.984;2023-02-13T10:20:40;13.40;;;6.70;;
69588;SDS011;56792;50.644;17.984;2023-02-13T10:23:23;12.10;;;6.40;;
69588;SDS011;56792;50.644;17.984;2023-02-13T10:26:00;11.40;;;6.70;;
69588;SDS011;56792;50.644;17.984;2023-02-13T10:28:38;12.80;;;6.30;;
69588;SDS011;56792;50.644;17.984;2023-02-13T10:31:16;15.60;;;7.80;;
69588;SDS011;56792;50.644;17.984;2023-02-13T10:33:54;13.30;;;6.80;;
69588;SDS011;56792;50.644;17.984;2023-02-13T10:36:32;12.10;;;6.40;;
69588;SDS011;56792;50.644;17.984;2023-02-13T10:39:20;13.20;;;6.60;;
69588;SDS011;56792;50.644;17.984;2023-02-13T10:41:58;13.00;;;6.50;;
69588;SDS011;56792;50.644;17.984;2023-02-13T10:44:49;11.50;;;6.60;;
69588;SDS011;56792;50.644;17.984;2023-02-13T10:47:40;13.70;;;6.30;;
69588;SDS011;56792;50.644;17.984;2023-02-13T10:50:25;13.30;;;6.80;;
69588;SDS011;56792;50.644;17.984;2023-02-13T10:53:15;14.20;;;7.30;;
69588;SDS011;56792;50.644;17.984;2023-02-13T10:56:03;14.80;;;8.10;;
69588;SDS011;56792;50.644;17.984;2023-02-13T10:58:56;18.60;;;8.20;;
69588;SDS011;56792;50.644;17.984;2023-02-13T11:01:40;15.10;;;7.80;;
69588;SDS011;56792;50.644;17.984;2023-02-13T11:04:19;15.70;;;7.30;;
69588;SDS011;56792;50.644;17.984;2023-02-13T11:06:56;22.30;;;8.90;;
69588;SDS011;56792;50.644;17.984;2023-02-13T11:09:36;15.70;;;8.00;;
69588;SDS011;56792;50.644;17.984;2023-02-13T11:15:23;14.10;;;7.30;;
69588;SDS011;56792;50.644;17.984;2023-02-13T11:17:59;19.20;;;8.20;;
69588;SDS011;56792;50.644;17.984;2023-02-13T11:20:43;19.20;;;7.80;;
69588;SDS011;56792;50.644;17.984;2023-02-13T11:23:33;14.70;;;8.20;;
69588;SDS011;56792;50.644;17.984;2023-02-13T11:26:12;16.20;;;8.20;;
69588;SDS011;56792;50.644;17.984;2023-02-13T11:28:55;17.20;;;8.70;;
69588;SDS011;56792;50.644;17.984;2023-02-13T11:31:31;14.00;;;7.60;;
69588;SDS011;56792;50.644;17.984;2023-02-13T11:34:24;12.90;;;7.80;;
69588;SDS011;56792;50.644;17.984;2023-02-13T11:37:26;9.90;;;5.80;;
69588;SDS011;56792;50.644;17.984;2023-02-13T11:40:03;12.00;;;6.60;;
69588;SDS011;56792;50.644;17.984;2023-02-13T11:42:58;11.10;;;7.20;;
69588;SDS011;56792;50.644;17.984;2023-02-13T11:45:31;11.20;;;6.50;;
69588;SDS011;56792;50.644;17.984;2023-02-13T11:48:14;11.10;;;5.90;;
69588;SDS011;56792;50.644;17.984;2023-02-13T11:50:55;10.30;;;6.00;;
69588;SDS011;56792;50.644;17.984;2023-02-13T11:53:30;11.30;;;6.50;;
69588;SDS011;56792;50.644;17.984;2023-02-13T11:56:11;9.30;;;5.80;;
69588;SDS011;56792;50.644;17.984;2023-02-13T11:58:45;8.10;;;4.70;;
69588;SDS011;56792;50.644;17.984;2023-02-13T12:01:30;7.40;;;4.50;;
69588;SDS011;56792;50.644;17.984;2023-02-13T12:04:14;5.50;;;3.30;;
69588;SDS011;56792;50.644;17.984;2023-02-13T12:07:01;6.60;;;4.10;;
69588;SDS011;56792;50.644;17.984;2023-02-13T12:09:41;5.00;;;2.70;;
69588;SDS011;56792;50.644;17.984;2023-02-13T12:12:20;5.90;;;3.20;;
69588;SDS011;56792;50.644;17.984;2023-02-13T12:14:56;6.30;;;4.00;;
69588;SDS011;56792;50.644;17.984;2023-02-13T12:17:32;6.60;;;4.00;;
69588;SDS011;56792;50.644;17.984;2023-02-13T12:22:56;5.20;;;3.20;;
69588;SDS011;56792;50.644;17.984;2023-02-13T12:25:44;6.30;;;3.40;;
69588;SDS011;56792;50.644;17.984;2023-02-13T12:28:36;7.90;;;3.80;;
69588;SDS011;56792;50.644;17.984;2023-02-13T12:31:39;5.60;;;3.00;;
69588;SDS011;56792;50.644;17.984;2023-02-13T12:34:45;7.50;;;3.80;;
69588;SDS011;56792;50.644;17.984;2023-02-13T12:37:44;7.80;;;3.30;;
69588;SDS011;56792;50.644;17.984;2023-02-13T12:41:00;6.30;;;3.50;;
69588;SDS011;56792;50.644;17.984;2023-02-13T12:44:18;4.90;;;2.70;;
69588;SDS011;56792;50.644;17.984;2023-02-13T12:47:16;6.10;;;2.70;;
69588;SDS011;56792;50.644;17.984;2023-02-13T12:50:05;5.00;;;2.90;;
69588;SDS011;56792;50.644;17.984;2023-02-13T12:53:05;5.10;;;2.40;;
69588;SDS011;56792;50.644;17.984;2023-02-13T12:56:23;4.20;;;2.20;;
69588;SDS011;56792;50.644;17.984;2023-02-13T12:59:06;6.00;;;3.10;;
69588;SDS011;56792;50.644;17.984;2023-02-13T13:02:13;5.90;;;2.60;;
69588;SDS011;56792;50.644;17.984;2023-02-13T13:05:12;3.90;;;2.30;;
69588;SDS011;56792;50.644;17.984;2023-02-13T13:08:12;4.30;;;2.30;;
69588;SDS011;56792;50.644;17.984;2023-02-13T13:11:20;5.90;;;2.40;;
69588;SDS011;56792;50.644;17.984;2023-02-13T13:14:08;4.90;;;2.50;;
69588;SDS011;56792;50.644;17.984;2023-02-13T13:16:54;5.00;;;2.20;;
69588;SDS011;56792;50.644;17.984;2023-02-13T13:19:39;5.60;;;2.60;;
69588;SDS011;56792;50.644;17.984;2023-02-13T13:22:26;5.20;;;2.70;;
69588;SDS011;56792;50.644;17.984;2023-02-13T13:25:11;5.10;;;2.60;;
69588;SDS011;56792;50.644;17.984;2023-02-13T13:27:54;4.90;;;2.90;;
69588;SDS011;56792;50.644;17.984;2023-02-13T13:30:34;5.50;;;3.20;;
69588;SDS011;56792;50.644;17.984;2023-02-13T13:33:12;5.90;;;3.30;;
69588;SDS011;56792;50.644;17.984;2023-02-13T13:35:54;7.10;;;3.60;;
69588;SDS011;56792;50.644;17.984;2023-02-13T13:38:41;16.30;;;8.50;;
69588;SDS011;56792;50.644;17.984;2023-02-13T13:41:25;12.80;;;5.50;;
69588;SDS011;56792;50.644;17.984;2023-02-13T13:44:12;13.50;;;4.90;;
69588;SDS011;56792;50.644;17.984;2023-02-13T13:46:58;6.90;;;3.80;;
69588;SDS011;56792;50.644;17.984;2023-02-13T13:49:47;5.10;;;3.00;;
69588;SDS011;56792;50.644;17.984;2023-02-13T13:52:26;5.50;;;3.40;;
69588;SDS011;56792;50.644;17.984;2023-02-13T13:55:02;7.70;;;4.20;;
69588;SDS011;56792;50.644;17.984;2023-02-13T13:58:02;7.20;;;3.50;;
69588;SDS011;56792;50.644;17.984;2023-02-13T14:00:45;6.60;;;3.90;;
69588;SDS011;56792;50.644;17.984;2023-02-13T14:03:37;8.00;;;5.00;;
69588;SDS011;56792;50.644;17.984;2023-02-13T14:06:13;8.80;;;5.30;;
69588;SDS011;56792;50.644;17.984;2023-02-13T14:09:08;7.40;;;4.10;;
69588;SDS011;56792;50.644;17.984;2023-02-13T14:12:44;9.40;;;5.00;;
69588;SDS011;56792;50.644;17.984;2023-02-13T14:15:50;8.60;;;4.40;;
69588;SDS011;56792;50.644;17.984;2023-02-13T14:18:24;7.60;;;3.90;;
69588;SDS011;56792;50.644;17.984;2023-02-13T14:20:59;8.60;;;4.60;;
69588;SDS011;56792;50.644;17.984;2023-02-13T14:23:42;9.00;;;5.50;;
69588;SDS011;56792;50.644;17.984;2023-02-13T14:26:32;10.00;;;5.70;;
69588;SDS011;56792;50.644;17.984;2023-02-13T14:29:38;12.10;;;5.90;;
69588;SDS011;56792;50.644;17.984;2023-02-13T14:32:20;9.10;;;5.20;;
69588;SDS011;56792;50.644;17.984;2023-02-13T14:35:01;7.60;;;4.50;;
69588;SDS011;56792;50.644;17.984;2023-02-13T14:37:51;8.30;;;4.20;;
69588;SDS011;56792;50.644;17.984;2023-02-13T14:43:36;9.60;;;5.00;;
69588;SDS011;56792;50.644;17.984;2023-02-13T14:46:25;10.30;;;5.40;;
69588;SDS011;56792;50.644;17.984;2023-02-13T14:49:06;12.10;;;6.20;;
69588;SDS011;56792;50.644;17.984;2023-02-13T14:51:49;11.70;;;6.70;;
69588;SDS011;56792;50.644;17.984;2023-02-13T14:54:28;10.50;;;5.70;;
69588;SDS011;56792;50.644;17.984;2023-02-13T14:57:06;8.70;;;4.80;;
69588;SDS011;56792;50.644;17.984;2023-02-13T14:59:50;9.40;;;5.00;;
69588;SDS011;56792;50.644;17.984;2023-02-13T15:02:27;10.10;;;5.10;;
69588;SDS011;56792;50.644;17.984;2023-02-13T15:05:05;35.30;;;30.50;;
69588;SDS011;56792;50.644;17.984;2023-02-13T15:07:46;13.90;;;8.10;;
69588;SDS011;56792;50.644;17.984;2023-02-13T15:10:32;17.80;;;7.30;;
69588;SDS011;56792;50.644;17.984;2023-02-13T15:13:17;14.60;;;7.40;;
69588;SDS011;56792;50.644;17.984;2023-02-13T15:15:54;18.60;;;7.80;;
69588;SDS011;56792;50.644;17.984;2023-02-13T15:18:30;17.90;;;7.40;;
69588;SDS011;56792;50.644;17.984;2023-02-13T15:21:14;19.50;;;8.40;;
69588;SDS011;56792;50.644;17.984;2023-02-13T15:23:53;17.80;;;8.20;;
69588;SDS011;56792;50.644;17.984;2023-02-13T15:26:29;20.40;;;8.20;;
69588;SDS011;56792;50.644;17.984;2023-02-13T15:29:11;21.70;;;8.80;;
69588;SDS011;56792;50.644;17.984;2023-02-13T15:31:47;17.50;;;7.50;;
69588;SDS011;56792;50.644;17.984;2023-02-13T15:34:26;19.80;;;8.70;;
69588;SDS011;56792;50.644;17.984;2023-02-13T15:37:02;23.00;;;10.70;;
69588;SDS011;56792;50.644;17.984;2023-02-13T15:39:35;22.40;;;10.10;;
69588;SDS011;56792;50.644;17.984;2023-02-13T15:42:11;17.60;;;8.40;;
69588;SDS011;56792;50.644;17.984;2023-02-13T15:44:50;16.30;;;7.90;;
69588;SDS011;56792;50.644;17.984;2023-02-13T15:47:28;18.80;;;8.60;;
69588;SDS011;56792;50.644;17.984;2023-02-13T15:50:05;31.90;;;20.20;;